sensor_id;sensor_type;location;lat;lon;timestamp;P1;durP1;ratioP1;P2;durP2;ratioP2
19828;SDS011;10075;50.924;4.396;2024-02-26T00:02:14;1.83;;;1.40;;
19828;SDS011;10075;50.924;4.396;2024-02-26T00:04:43;3.80;;;1.50;;
19828;SDS011;10075;50.924;4.396;2024-02-26T00:07:10;2.67;;;1.50;;
19828;SDS011;10075;50.924;4.396;2024-02-26T00:09:37;5.23;;;1.50;;
19828;SDS011;10075;50.924;4.396;2024-02-26T00:12:04;2.67;;;1.20;;
19828;SDS011;10075;50.924;4.396;2024-02-26T00:14:31;2.07;;;1.00;;
19828;SDS011;10075;50.924;4.396;2024-02-26T00:16:59;3.23;;;1.50;;
19828;SDS011;10075;50.924;4.396;2024-02-26T00:19:27;1.30;;;1.17;;
19828;SDS011;10075;50.924;4.396;2024-02-26T00:21:55;3.20;;;1.43;;
19828;SDS011;10075;50.924;4.396;2024-02-26T00:24:22;4.03;;;1.40;;
19828;SDS011;10075;50.924;4.396;2024-02-26T00:26:49;1.90;;;1.07;;
19828;SDS011;10075;50.924;4.396;2024-02-26T00:29:19;2.13;;;1.30;;
19828;SDS011;10075;50.924;4.396;2024-02-26T00:31:46;1.93;;;1.00;;
19828;SDS011;10075;50.924;4.396;2024-02-26T00:34:13;3.37;;;1.77;;
19828;SDS011;10075;50.924;4.396;2024-02-26T00:36:40;2.73;;;1.27;;
19828;SDS011;10075;50.924;4.396;2024-02-26T00:39:08;1.70;;;1.17;;
19828;SDS011;10075;50.924;4.396;2024-02-26T00:41:38;3.00;;;1.30;;
19828;SDS011;10075;50.924;4.396;2024-02-26T00:44:06;1.87;;;1.10;;
19828;SDS011;10075;50.924;4.396;2024-02-26T00:46:33;2.07;;;1.20;;
19828;SDS011;10075;50.924;4.396;2024-02-26T00:49:01;4.93;;;1.30;;
19828;SDS011;10075;50.924;4.396;2024-02-26T00:51:28;2.30;;;1.40;;
19828;SDS011;10075;50.924;4.396;2024-02-26T00:53:55;3.10;;;1.40;;
19828;SDS011;10075;50.924;4.396;2024-02-26T00:56:23;2.10;;;1.27;;
19828;SDS011;10075;50.924;4.396;2024-02-26T00:58:50;4.47;;;1.40;;
19828;SDS011;10075;50.924;4.396;2024-02-26T01:01:17;2.63;;;1.17;;
19828;SDS011;10075;50.924;4.396;2024-02-26T01:03:45;3.03;;;1.33;;
19828;SDS011;10075;50.924;4.396;2024-02-26T01:06:12;2.90;;;1.30;;
19828;SDS011;10075;50.924;4.396;2024-02-26T01:08:39;2.63;;;1.40;;
19828;SDS011;10075;50.924;4.396;2024-02-26T01:11:05;2.60;;;1.27;;
19828;SDS011;10075;50.924;4.396;2024-02-26T01:13:34;2.73;;;1.50;;
19828;SDS011;10075;50.924;4.396;2024-02-26T01:16:01;2.83;;;1.30;;
19828;SDS011;10075;50.924;4.396;2024-02-26T01:18:28;2.17;;;1.13;;
19828;SDS011;10075;50.924;4.396;2024-02-26T01:20:55;4.83;;;1.70;;
19828;SDS011;10075;50.924;4.396;2024-02-26T01:23:22;4.33;;;1.37;;
19828;SDS011;10075;50.924;4.396;2024-02-26T01:25:49;2.90;;;1.20;;
19828;SDS011;10075;50.924;4.396;2024-02-26T01:28:16;2.40;;;1.20;;
19828;SDS011;10075;50.924;4.396;2024-02-26T01:30:45;2.57;;;1.40;;
19828;SDS011;10075;50.924;4.396;2024-02-26T01:33:12;4.90;;;1.30;;
19828;SDS011;10075;50.924;4.396;2024-02-26T01:35:39;5.53;;;2.03;;
19828;SDS011;10075;50.924;4.396;2024-02-26T01:38:05;1.60;;;1.13;;
19828;SDS011;10075;50.924;4.396;2024-02-26T01:40:32;3.80;;;1.20;;
19828;SDS011;10075;50.924;4.396;2024-02-26T01:42:59;1.73;;;1.10;;
19828;SDS011;10075;50.924;4.396;2024-02-26T01:45:26;1.83;;;1.10;;
19828;SDS011;10075;50.924;4.396;2024-02-26T01:47:55;4.10;;;1.47;;
19828;SDS011;10075;50.924;4.396;2024-02-26T01:50:23;2.67;;;1.00;;
19828;SDS011;10075;50.924;4.396;2024-02-26T01:52:50;3.80;;;1.23;;
19828;SDS011;10075;50.924;4.396;2024-02-26T01:55:18;2.83;;;1.10;;
19828;SDS011;10075;50.924;4.396;2024-02-26T01:57:47;1.10;;;0.97;;
19828;SDS011;10075;50.924;4.396;2024-02-26T02:00:17;2.23;;;1.30;;
19828;SDS011;10075;50.924;4.396;2024-02-26T02:02:44;1.53;;;1.07;;
19828;SDS011;10075;50.924;4.396;2024-02-26T02:05:14;2.37;;;1.30;;
19828;SDS011;10075;50.924;4.396;2024-02-26T02:07:43;3.33;;;1.10;;
19828;SDS011;10075;50.924;4.396;2024-02-26T02:10:10;3.10;;;0.90;;
19828;SDS011;10075;50.924;4.396;2024-02-26T02:12:37;1.20;;;0.80;;
19828;SDS011;10075;50.924;4.396;2024-02-26T02:15:05;1.93;;;1.10;;
19828;SDS011;10075;50.924;4.396;2024-02-26T02:17:33;1.77;;;1.10;;
19828;SDS011;10075;50.924;4.396;2024-02-26T02:20:00;1.87;;;0.97;;
19828;SDS011;10075;50.924;4.396;2024-02-26T02:22:29;2.07;;;1.10;;
19828;SDS011;10075;50.924;4.396;2024-02-26T02:24:57;4.40;;;1.00;;
19828;SDS011;10075;50.924;4.396;2024-02-26T02:27:25;4.80;;;1.10;;
19828;SDS011;10075;50.924;4.396;2024-02-26T02:29:52;1.37;;;0.90;;
19828;SDS011;10075;50.924;4.396;2024-02-26T02:32:19;2.53;;;1.20;;
19828;SDS011;10075;50.924;4.396;2024-02-26T02:34:47;3.40;;;1.33;;
19828;SDS011;10075;50.924;4.396;2024-02-26T02:37:14;1.60;;;1.00;;
19828;SDS011;10075;50.924;4.396;2024-02-26T02:39:43;1.80;;;1.00;;
19828;SDS011;10075;50.924;4.396;2024-02-26T02:42:10;4.30;;;1.30;;
19828;SDS011;10075;50.924;4.396;2024-02-26T02:44:37;2.03;;;1.20;;
19828;SDS011;10075;50.924;4.396;2024-02-26T02:47:04;2.00;;;1.20;;
19828;SDS011;10075;50.924;4.396;2024-02-26T02:49:31;2.03;;;1.33;;
19828;SDS011;10075;50.924;4.396;2024-02-26T02:51:58;6.13;;;1.43;;
19828;SDS011;10075;50.924;4.396;2024-02-26T02:54:24;1.50;;;1.10;;
19828;SDS011;10075;50.924;4.396;2024-02-26T02:56:52;3.00;;;1.40;;
19828;SDS011;10075;50.924;4.396;2024-02-26T02:59:19;2.83;;;1.60;;
19828;SDS011;10075;50.924;4.396;2024-02-26T03:01:46;1.93;;;1.17;;
19828;SDS011;10075;50.924;4.396;2024-02-26T03:04:13;3.83;;;1.67;;
19828;SDS011;10075;50.924;4.396;2024-02-26T03:06:40;3.87;;;1.60;;
19828;SDS011;10075;50.924;4.396;2024-02-26T03:09:07;3.93;;;1.87;;
19828;SDS011;10075;50.924;4.396;2024-02-26T03:11:34;2.83;;;1.90;;
19828;SDS011;10075;50.924;4.396;2024-02-26T03:14:02;1.83;;;1.67;;
19828;SDS011;10075;50.924;4.396;2024-02-26T03:16:30;3.77;;;1.83;;
19828;SDS011;10075;50.924;4.396;2024-02-26T03:18:56;4.23;;;2.10;;
19828;SDS011;10075;50.924;4.396;2024-02-26T03:21:23;2.83;;;1.80;;
19828;SDS011;10075;50.924;4.396;2024-02-26T03:23:51;4.27;;;2.10;;
19828;SDS011;10075;50.924;4.396;2024-02-26T03:26:18;1.97;;;1.57;;
19828;SDS011;10075;50.924;4.396;2024-02-26T03:28:45;3.70;;;2.03;;
19828;SDS011;10075;50.924;4.396;2024-02-26T03:31:13;3.73;;;1.90;;
19828;SDS011;10075;50.924;4.396;2024-02-26T03:33:40;3.80;;;1.80;;
19828;SDS011;10075;50.924;4.396;2024-02-26T03:36:07;2.77;;;2.00;;
19828;SDS011;10075;50.924;4.396;2024-02-26T03:38:34;4.37;;;2.67;;
19828;SDS011;10075;50.924;4.396;2024-02-26T03:41:01;3.57;;;2.17;;
19828;SDS011;10075;50.924;4.396;2024-02-26T03:43:27;3.87;;;2.50;;
19828;SDS011;10075;50.924;4.396;2024-02-26T03:45:54;6.70;;;3.10;;
19828;SDS011;10075;50.924;4.396;2024-02-26T03:48:22;4.87;;;2.40;;
19828;SDS011;10075;50.924;4.396;2024-02-26T03:50:49;3.60;;;2.47;;
19828;SDS011;10075;50.924;4.396;2024-02-26T03:53:16;3.77;;;2.80;;
19828;SDS011;10075;50.924;4.396;2024-02-26T03:55:43;4.47;;;2.83;;
19828;SDS011;10075;50.924;4.396;2024-02-26T03:58:12;4.47;;;3.30;;
19828;SDS011;10075;50.924;4.396;2024-02-26T04:00:39;4.40;;;3.33;;
19828;SDS011;10075;50.924;4.396;2024-02-26T04:03:05;6.53;;;3.60;;
19828;SDS011;10075;50.924;4.396;2024-02-26T04:05:34;5.47;;;3.77;;
19828;SDS011;10075;50.924;4.396;2024-02-26T04:08:01;3.63;;;3.10;;
19828;SDS011;10075;50.924;4.396;2024-02-26T04:10:29;6.37;;;4.53;;
19828;SDS011;10075;50.924;4.396;2024-02-26T04:12:55;5.90;;;4.10;;
19828;SDS011;10075;50.924;4.396;2024-02-26T04:15:22;6.80;;;4.53;;
19828;SDS011;10075;50.924;4.396;2024-02-26T04:17:49;8.83;;;4.63;;
19828;SDS011;10075;50.924;4.396;2024-02-26T04:20:16;5.17;;;4.13;;
19828;SDS011;10075;50.924;4.396;2024-02-26T04:22:45;7.03;;;4.60;;
19828;SDS011;10075;50.924;4.396;2024-02-26T04:25:11;6.07;;;5.10;;
19828;SDS011;10075;50.924;4.396;2024-02-26T04:27:38;5.57;;;4.40;;
19828;SDS011;10075;50.924;4.396;2024-02-26T04:30:06;8.03;;;5.17;;
19828;SDS011;10075;50.924;4.396;2024-02-26T04:32:33;7.83;;;4.83;;
19828;SDS011;10075;50.924;4.396;2024-02-26T04:35:00;6.97;;;4.77;;
19828;SDS011;10075;50.924;4.396;2024-02-26T04:37:28;6.57;;;5.47;;
19828;SDS011;10075;50.924;4.396;2024-02-26T04:39:58;7.33;;;5.23;;
19828;SDS011;10075;50.924;4.396;2024-02-26T04:42:26;6.27;;;5.07;;
19828;SDS011;10075;50.924;4.396;2024-02-26T04:44:54;6.57;;;4.90;;
19828;SDS011;10075;50.924;4.396;2024-02-26T04:47:21;7.70;;;5.60;;
19828;SDS011;10075;50.924;4.396;2024-02-26T04:49:48;8.23;;;5.47;;
19828;SDS011;10075;50.924;4.396;2024-02-26T04:52:16;8.97;;;5.87;;
19828;SDS011;10075;50.924;4.396;2024-02-26T04:54:42;9.70;;;6.00;;
19828;SDS011;10075;50.924;4.396;2024-02-26T04:57:11;8.93;;;5.83;;
19828;SDS011;10075;50.924;4.396;2024-02-26T04:59:38;9.40;;;6.37;;
19828;SDS011;10075;50.924;4.396;2024-02-26T05:02:05;7.33;;;6.37;;
19828;SDS011;10075;50.924;4.396;2024-02-26T05:04:32;9.77;;;7.80;;
19828;SDS011;10075;50.924;4.396;2024-02-26T05:06:59;12.10;;;8.03;;
19828;SDS011;10075;50.924;4.396;2024-02-26T05:09:26;14.30;;;9.17;;
19828;SDS011;10075;50.924;4.396;2024-02-26T05:11:53;11.77;;;8.40;;
19828;SDS011;10075;50.924;4.396;2024-02-26T05:14:21;12.97;;;9.40;;
19828;SDS011;10075;50.924;4.396;2024-02-26T05:16:48;14.07;;;9.00;;
19828;SDS011;10075;50.924;4.396;2024-02-26T05:19:15;12.17;;;9.23;;
19828;SDS011;10075;50.924;4.396;2024-02-26T05:21:42;13.60;;;10.00;;
19828;SDS011;10075;50.924;4.396;2024-02-26T05:24:10;12.10;;;9.90;;
19828;SDS011;10075;50.924;4.396;2024-02-26T05:26:37;17.67;;;10.37;;
19828;SDS011;10075;50.924;4.396;2024-02-26T05:29:04;12.03;;;9.63;;
19828;SDS011;10075;50.924;4.396;2024-02-26T05:31:32;14.13;;;10.43;;
19828;SDS011;10075;50.924;4.396;2024-02-26T05:33:59;15.67;;;11.33;;
19828;SDS011;10075;50.924;4.396;2024-02-26T05:36:26;13.77;;;11.63;;
19828;SDS011;10075;50.924;4.396;2024-02-26T05:38:58;16.03;;;11.53;;
19828;SDS011;10075;50.924;4.396;2024-02-26T05:41:25;15.67;;;12.30;;
19828;SDS011;10075;50.924;4.396;2024-02-26T05:43:52;18.60;;;13.13;;
19828;SDS011;10075;50.924;4.396;2024-02-26T05:46:19;17.87;;;12.10;;
19828;SDS011;10075;50.924;4.396;2024-02-26T05:48:48;13.67;;;9.87;;
19828;SDS011;10075;50.924;4.396;2024-02-26T05:51:15;13.27;;;11.13;;
19828;SDS011;10075;50.924;4.396;2024-02-26T05:53:42;15.10;;;11.53;;
19828;SDS011;10075;50.924;4.396;2024-02-26T05:56:09;13.40;;;11.50;;
19828;SDS011;10075;50.924;4.396;2024-02-26T05:58:36;13.00;;;10.60;;
19828;SDS011;10075;50.924;4.396;2024-02-26T06:01:03;15.43;;;11.40;;
19828;SDS011;10075;50.924;4.396;2024-02-26T06:03:30;20.33;;;12.30;;
19828;SDS011;10075;50.924;4.396;2024-02-26T06:05:59;17.47;;;11.43;;
19828;SDS011;10075;50.924;4.396;2024-02-26T06:08:25;14.87;;;10.63;;
19828;SDS011;10075;50.924;4.396;2024-02-26T06:10:52;11.13;;;9.53;;
19828;SDS011;10075;50.924;4.396;2024-02-26T06:13:19;13.10;;;9.67;;
19828;SDS011;10075;50.924;4.396;2024-02-26T06:15:46;12.90;;;9.37;;
19828;SDS011;10075;50.924;4.396;2024-02-26T06:18:13;11.30;;;10.10;;
19828;SDS011;10075;50.924;4.396;2024-02-26T06:20:41;13.67;;;10.20;;
19828;SDS011;10075;50.924;4.396;2024-02-26T06:23:09;12.60;;;10.30;;
19828;SDS011;10075;50.924;4.396;2024-02-26T06:25:36;14.23;;;10.20;;
19828;SDS011;10075;50.924;4.396;2024-02-26T06:28:03;12.53;;;10.23;;
19828;SDS011;10075;50.924;4.396;2024-02-26T06:30:31;11.67;;;9.93;;
19828;SDS011;10075;50.924;4.396;2024-02-26T06:32:58;12.13;;;10.33;;
19828;SDS011;10075;50.924;4.396;2024-02-26T06:35:25;11.43;;;9.70;;
19828;SDS011;10075;50.924;4.396;2024-02-26T06:37:53;11.53;;;10.33;;
19828;SDS011;10075;50.924;4.396;2024-02-26T06:40:21;13.53;;;11.30;;
19828;SDS011;10075;50.924;4.396;2024-02-26T06:42:48;11.23;;;9.73;;
19828;SDS011;10075;50.924;4.396;2024-02-26T06:45:15;12.53;;;10.73;;
19828;SDS011;10075;50.924;4.396;2024-02-26T06:47:43;13.00;;;10.83;;
19828;SDS011;10075;50.924;4.396;2024-02-26T06:50:11;14.37;;;11.87;;
19828;SDS011;10075;50.924;4.396;2024-02-26T06:52:38;12.67;;;11.13;;
19828;SDS011;10075;50.924;4.396;2024-02-26T06:55:05;15.23;;;11.80;;
19828;SDS011;10075;50.924;4.396;2024-02-26T06:57:35;11.67;;;10.57;;
19828;SDS011;10075;50.924;4.396;2024-02-26T07:00:02;14.00;;;10.93;;
19828;SDS011;10075;50.924;4.396;2024-02-26T07:02:29;16.73;;;11.13;;
19828;SDS011;10075;50.924;4.396;2024-02-26T07:04:56;12.70;;;10.93;;
19828;SDS011;10075;50.924;4.396;2024-02-26T07:07:23;12.90;;;11.33;;
19828;SDS011;10075;50.924;4.396;2024-02-26T07:09:50;12.80;;;11.20;;
19828;SDS011;10075;50.924;4.396;2024-02-26T07:12:17;13.90;;;11.43;;
19828;SDS011;10075;50.924;4.396;2024-02-26T07:14:47;13.80;;;11.93;;
19828;SDS011;10075;50.924;4.396;2024-02-26T07:17:15;13.03;;;11.67;;
19828;SDS011;10075;50.924;4.396;2024-02-26T07:19:42;13.60;;;11.33;;
19828;SDS011;10075;50.924;4.396;2024-02-26T07:22:09;14.83;;;12.70;;
19828;SDS011;10075;50.924;4.396;2024-02-26T07:24:36;13.30;;;11.70;;
19828;SDS011;10075;50.924;4.396;2024-02-26T07:27:03;13.50;;;12.10;;
19828;SDS011;10075;50.924;4.396;2024-02-26T07:29:30;13.87;;;12.30;;
19828;SDS011;10075;50.924;4.396;2024-02-26T07:31:58;14.13;;;12.60;;
19828;SDS011;10075;50.924;4.396;2024-02-26T07:34:25;14.27;;;11.73;;
19828;SDS011;10075;50.924;4.396;2024-02-26T07:36:54;14.10;;;10.77;;
19828;SDS011;10075;50.924;4.396;2024-02-26T07:39:21;13.30;;;11.07;;
19828;SDS011;10075;50.924;4.396;2024-02-26T07:41:48;13.17;;;11.13;;
19828;SDS011;10075;50.924;4.396;2024-02-26T07:44:17;12.00;;;10.77;;
19828;SDS011;10075;50.924;4.396;2024-02-26T07:46:44;13.30;;;11.17;;
19828;SDS011;10075;50.924;4.396;2024-02-26T07:49:12;12.57;;;11.10;;
19828;SDS011;10075;50.924;4.396;2024-02-26T07:51:39;12.40;;;10.80;;
19828;SDS011;10075;50.924;4.396;2024-02-26T07:54:07;13.27;;;11.30;;
19828;SDS011;10075;50.924;4.396;2024-02-26T07:56:34;15.37;;;11.50;;
19828;SDS011;10075;50.924;4.396;2024-02-26T07:59:01;12.27;;;10.60;;
19828;SDS011;10075;50.924;4.396;2024-02-26T08:01:27;12.73;;;10.67;;
19828;SDS011;10075;50.924;4.396;2024-02-26T08:03:54;14.47;;;11.40;;
19828;SDS011;10075;50.924;4.396;2024-02-26T08:06:23;12.47;;;10.83;;
19828;SDS011;10075;50.924;4.396;2024-02-26T08:08:50;12.33;;;10.80;;
19828;SDS011;10075;50.924;4.396;2024-02-26T08:11:17;11.83;;;10.63;;
19828;SDS011;10075;50.924;4.396;2024-02-26T08:13:44;13.97;;;10.77;;
19828;SDS011;10075;50.924;4.396;2024-02-26T08:16:11;11.87;;;10.60;;
19828;SDS011;10075;50.924;4.396;2024-02-26T08:18:38;15.07;;;11.33;;
19828;SDS011;10075;50.924;4.396;2024-02-26T08:21:05;12.53;;;11.03;;
19828;SDS011;10075;50.924;4.396;2024-02-26T08:23:35;11.83;;;10.03;;
19828;SDS011;10075;50.924;4.396;2024-02-26T08:26:02;12.93;;;11.17;;
19828;SDS011;10075;50.924;4.396;2024-02-26T08:28:32;11.50;;;10.30;;
19828;SDS011;10075;50.924;4.396;2024-02-26T08:30:59;12.87;;;10.83;;
19828;SDS011;10075;50.924;4.396;2024-02-26T08:33:26;17.50;;;9.97;;
19828;SDS011;10075;50.924;4.396;2024-02-26T08:35:52;11.23;;;9.47;;
19828;SDS011;10075;50.924;4.396;2024-02-26T08:38:19;10.33;;;9.17;;
19828;SDS011;10075;50.924;4.396;2024-02-26T08:40:48;11.57;;;10.17;;
19828;SDS011;10075;50.924;4.396;2024-02-26T08:43:17;11.43;;;9.33;;
19828;SDS011;10075;50.924;4.396;2024-02-26T08:45:44;11.90;;;10.67;;
19828;SDS011;10075;50.924;4.396;2024-02-26T08:48:11;14.70;;;10.40;;
19828;SDS011;10075;50.924;4.396;2024-02-26T08:50:38;10.50;;;9.40;;
19828;SDS011;10075;50.924;4.396;2024-02-26T08:53:05;12.30;;;9.87;;
19828;SDS011;10075;50.924;4.396;2024-02-26T08:55:32;11.43;;;9.57;;
19828;SDS011;10075;50.924;4.396;2024-02-26T08:58:00;10.00;;;8.90;;
19828;SDS011;10075;50.924;4.396;2024-02-26T09:00:27;11.30;;;9.50;;
19828;SDS011;10075;50.924;4.396;2024-02-26T09:02:54;10.20;;;8.90;;
19828;SDS011;10075;50.924;4.396;2024-02-26T09:05:21;12.03;;;9.40;;
19828;SDS011;10075;50.924;4.396;2024-02-26T09:07:48;11.83;;;9.87;;
19828;SDS011;10075;50.924;4.396;2024-02-26T09:10:17;11.47;;;9.30;;
19828;SDS011;10075;50.924;4.396;2024-02-26T09:12:44;10.90;;;9.70;;
19828;SDS011;10075;50.924;4.396;2024-02-26T09:15:12;12.33;;;10.07;;
19828;SDS011;10075;50.924;4.396;2024-02-26T09:17:39;12.97;;;10.27;;
19828;SDS011;10075;50.924;4.396;2024-02-26T09:20:06;12.43;;;10.23;;
19828;SDS011;10075;50.924;4.396;2024-02-26T09:22:34;12.73;;;10.70;;
19828;SDS011;10075;50.924;4.396;2024-02-26T09:25:03;12.27;;;10.83;;
19828;SDS011;10075;50.924;4.396;2024-02-26T09:27:30;13.77;;;11.13;;
19828;SDS011;10075;50.924;4.396;2024-02-26T09:29:58;12.13;;;10.70;;
19828;SDS011;10075;50.924;4.396;2024-02-26T09:32:26;14.40;;;10.23;;
19828;SDS011;10075;50.924;4.396;2024-02-26T09:34:53;12.23;;;11.03;;
19828;SDS011;10075;50.924;4.396;2024-02-26T09:37:20;18.00;;;12.07;;
19828;SDS011;10075;50.924;4.396;2024-02-26T09:39:47;13.40;;;11.43;;
19828;SDS011;10075;50.924;4.396;2024-02-26T09:42:14;15.00;;;11.50;;
19828;SDS011;10075;50.924;4.396;2024-02-26T09:44:44;12.97;;;9.93;;
19828;SDS011;10075;50.924;4.396;2024-02-26T09:47:12;11.33;;;10.13;;
19828;SDS011;10075;50.924;4.396;2024-02-26T09:49:43;12.43;;;9.77;;
19828;SDS011;10075;50.924;4.396;2024-02-26T09:52:12;12.40;;;11.10;;
19828;SDS011;10075;50.924;4.396;2024-02-26T09:54:42;10.10;;;9.10;;
19828;SDS011;10075;50.924;4.396;2024-02-26T09:57:13;12.37;;;10.57;;
19828;SDS011;10075;50.924;4.396;2024-02-26T09:59:42;12.73;;;10.17;;
19828;SDS011;10075;50.924;4.396;2024-02-26T10:02:11;17.63;;;11.87;;
19828;SDS011;10075;50.924;4.396;2024-02-26T10:04:39;14.83;;;11.00;;
19828;SDS011;10075;50.924;4.396;2024-02-26T10:07:09;12.73;;;11.43;;
19828;SDS011;10075;50.924;4.396;2024-02-26T10:09:38;13.93;;;11.10;;
19828;SDS011;10075;50.924;4.396;2024-02-26T10:12:07;12.43;;;10.80;;
19828;SDS011;10075;50.924;4.396;2024-02-26T10:14:36;11.93;;;9.83;;
19828;SDS011;10075;50.924;4.396;2024-02-26T10:17:03;13.23;;;10.10;;
19828;SDS011;10075;50.924;4.396;2024-02-26T10:19:34;12.87;;;10.87;;
19828;SDS011;10075;50.924;4.396;2024-02-26T10:22:01;11.47;;;10.00;;
19828;SDS011;10075;50.924;4.396;2024-02-26T10:24:31;13.13;;;10.53;;
19828;SDS011;10075;50.924;4.396;2024-02-26T10:26:59;15.00;;;10.40;;
19828;SDS011;10075;50.924;4.396;2024-02-26T10:29:26;11.23;;;9.17;;
19828;SDS011;10075;50.924;4.396;2024-02-26T10:31:53;10.27;;;8.40;;
19828;SDS011;10075;50.924;4.396;2024-02-26T10:34:20;11.17;;;8.20;;
19828;SDS011;10075;50.924;4.396;2024-02-26T10:36:48;11.23;;;8.90;;
19828;SDS011;10075;50.924;4.396;2024-02-26T10:39:16;11.67;;;9.00;;
19828;SDS011;10075;50.924;4.396;2024-02-26T10:41:44;10.93;;;8.50;;
19828;SDS011;10075;50.924;4.396;2024-02-26T10:44:11;9.73;;;8.33;;
19828;SDS011;10075;50.924;4.396;2024-02-26T10:46:39;9.30;;;8.20;;
19828;SDS011;10075;50.924;4.396;2024-02-26T10:49:08;9.23;;;7.97;;
19828;SDS011;10075;50.924;4.396;2024-02-26T10:51:40;11.33;;;8.50;;
19828;SDS011;10075;50.924;4.396;2024-02-26T10:54:10;8.17;;;7.27;;
19828;SDS011;10075;50.924;4.396;2024-02-26T10:56:42;8.83;;;7.93;;
19828;SDS011;10075;50.924;4.396;2024-02-26T10:59:12;8.20;;;7.30;;
19828;SDS011;10075;50.924;4.396;2024-02-26T11:01:40;7.50;;;6.57;;
19828;SDS011;10075;50.924;4.396;2024-02-26T11:04:11;7.47;;;5.77;;
19828;SDS011;10075;50.924;4.396;2024-02-26T11:06:39;5.50;;;4.73;;
19828;SDS011;10075;50.924;4.396;2024-02-26T11:09:06;4.40;;;4.00;;
19828;SDS011;10075;50.924;4.396;2024-02-26T11:11:38;4.97;;;4.23;;
19828;SDS011;10075;50.924;4.396;2024-02-26T11:14:08;5.50;;;4.93;;
19828;SDS011;10075;50.924;4.396;2024-02-26T11:16:35;5.97;;;5.03;;
19828;SDS011;10075;50.924;4.396;2024-02-26T11:19:06;4.93;;;4.43;;
19828;SDS011;10075;50.924;4.396;2024-02-26T11:21:35;4.87;;;4.37;;
19828;SDS011;10075;50.924;4.396;2024-02-26T11:24:06;4.63;;;4.17;;
19828;SDS011;10075;50.924;4.396;2024-02-26T11:26:36;4.20;;;3.70;;
19828;SDS011;10075;50.924;4.396;2024-02-26T11:29:09;5.97;;;4.70;;
19828;SDS011;10075;50.924;4.396;2024-02-26T11:31:38;5.87;;;4.73;;
19828;SDS011;10075;50.924;4.396;2024-02-26T11:34:06;6.40;;;5.33;;
19828;SDS011;10075;50.924;4.396;2024-02-26T11:36:33;6.10;;;5.30;;
19828;SDS011;10075;50.924;4.396;2024-02-26T11:39:03;7.57;;;6.00;;
19828;SDS011;10075;50.924;4.396;2024-02-26T11:41:30;6.63;;;5.93;;
19828;SDS011;10075;50.924;4.396;2024-02-26T11:43:59;9.40;;;7.47;;
19828;SDS011;10075;50.924;4.396;2024-02-26T11:46:29;8.50;;;6.90;;
19828;SDS011;10075;50.924;4.396;2024-02-26T11:49:00;8.67;;;7.73;;
19828;SDS011;10075;50.924;4.396;2024-02-26T11:51:32;8.87;;;7.63;;
19828;SDS011;10075;50.924;4.396;2024-02-26T11:54:00;7.30;;;6.60;;
19828;SDS011;10075;50.924;4.396;2024-02-26T11:56:27;9.70;;;7.80;;
19828;SDS011;10075;50.924;4.396;2024-02-26T11:59:01;9.10;;;7.80;;
19828;SDS011;10075;50.924;4.396;2024-02-26T12:01:41;9.80;;;8.63;;
19828;SDS011;10075;50.924;4.396;2024-02-26T12:04:12;9.20;;;8.13;;
19828;SDS011;10075;50.924;4.396;2024-02-26T12:06:42;10.63;;;8.13;;
19828;SDS011;10075;50.924;4.396;2024-02-26T12:09:16;11.70;;;9.37;;
19828;SDS011;10075;50.924;4.396;2024-02-26T12:11:57;14.40;;;9.80;;
19828;SDS011;10075;50.924;4.396;2024-02-26T12:14:25;11.93;;;9.70;;
19828;SDS011;10075;50.924;4.396;2024-02-26T12:16:53;10.83;;;9.73;;
19828;SDS011;10075;50.924;4.396;2024-02-26T12:19:23;14.13;;;11.23;;
19828;SDS011;10075;50.924;4.396;2024-02-26T12:21:51;14.20;;;11.93;;
19828;SDS011;10075;50.924;4.396;2024-02-26T12:24:20;12.50;;;11.00;;
19828;SDS011;10075;50.924;4.396;2024-02-26T12:26:47;11.13;;;9.17;;
19828;SDS011;10075;50.924;4.396;2024-02-26T12:29:14;10.13;;;9.00;;
19828;SDS011;10075;50.924;4.396;2024-02-26T12:31:41;12.73;;;10.83;;
19828;SDS011;10075;50.924;4.396;2024-02-26T12:34:10;10.43;;;9.23;;
19828;SDS011;10075;50.924;4.396;2024-02-26T12:36:37;9.83;;;8.30;;
19828;SDS011;10075;50.924;4.396;2024-02-26T12:39:05;8.70;;;7.50;;
19828;SDS011;10075;50.924;4.396;2024-02-26T12:41:34;8.80;;;7.13;;
19828;SDS011;10075;50.924;4.396;2024-02-26T12:44:01;12.30;;;7.50;;
19828;SDS011;10075;50.924;4.396;2024-02-26T12:46:28;9.80;;;7.70;;
19828;SDS011;10075;50.924;4.396;2024-02-26T12:48:56;12.40;;;8.23;;
19828;SDS011;10075;50.924;4.396;2024-02-26T12:51:25;10.30;;;8.67;;
19828;SDS011;10075;50.924;4.396;2024-02-26T12:53:53;9.40;;;8.40;;
19828;SDS011;10075;50.924;4.396;2024-02-26T12:56:21;9.77;;;7.97;;
19828;SDS011;10075;50.924;4.396;2024-02-26T12:58:49;10.80;;;9.10;;
19828;SDS011;10075;50.924;4.396;2024-02-26T13:01:18;11.40;;;10.10;;
19828;SDS011;10075;50.924;4.396;2024-02-26T13:03:49;10.47;;;9.37;;
19828;SDS011;10075;50.924;4.396;2024-02-26T13:06:17;13.90;;;11.07;;
19828;SDS011;10075;50.924;4.396;2024-02-26T13:08:46;10.90;;;9.60;;
19828;SDS011;10075;50.924;4.396;2024-02-26T13:11:13;14.20;;;10.37;;
19828;SDS011;10075;50.924;4.396;2024-02-26T13:13:40;7.97;;;6.47;;
19828;SDS011;10075;50.924;4.396;2024-02-26T13:16:09;10.17;;;7.53;;
19828;SDS011;10075;50.924;4.396;2024-02-26T13:18:39;17.17;;;10.57;;
19828;SDS011;10075;50.924;4.396;2024-02-26T13:21:11;10.60;;;9.50;;
19828;SDS011;10075;50.924;4.396;2024-02-26T13:23:40;12.10;;;10.13;;
19828;SDS011;10075;50.924;4.396;2024-02-26T13:26:11;11.40;;;9.27;;
19828;SDS011;10075;50.924;4.396;2024-02-26T13:28:39;14.70;;;10.87;;
19828;SDS011;10075;50.924;4.396;2024-02-26T13:31:06;17.13;;;10.87;;
19828;SDS011;10075;50.924;4.396;2024-02-26T13:33:35;14.07;;;10.50;;
19828;SDS011;10075;50.924;4.396;2024-02-26T13:36:02;13.63;;;10.23;;
19828;SDS011;10075;50.924;4.396;2024-02-26T13:38:30;10.60;;;8.63;;
19828;SDS011;10075;50.924;4.396;2024-02-26T13:40:57;11.57;;;9.20;;
19828;SDS011;10075;50.924;4.396;2024-02-26T13:43:25;11.83;;;9.03;;
19828;SDS011;10075;50.924;4.396;2024-02-26T13:45:52;11.67;;;9.73;;
19828;SDS011;10075;50.924;4.396;2024-02-26T13:48:19;10.13;;;9.03;;
19828;SDS011;10075;50.924;4.396;2024-02-26T13:50:46;12.37;;;10.77;;
19828;SDS011;10075;50.924;4.396;2024-02-26T13:53:13;13.93;;;11.33;;
19828;SDS011;10075;50.924;4.396;2024-02-26T13:55:41;11.07;;;8.30;;
19828;SDS011;10075;50.924;4.396;2024-02-26T13:58:08;16.37;;;11.43;;
19828;SDS011;10075;50.924;4.396;2024-02-26T14:00:40;12.43;;;9.90;;
19828;SDS011;10075;50.924;4.396;2024-02-26T14:03:07;12.90;;;9.40;;
19828;SDS011;10075;50.924;4.396;2024-02-26T14:05:34;13.03;;;10.23;;
19828;SDS011;10075;50.924;4.396;2024-02-26T14:08:01;13.77;;;10.57;;
19828;SDS011;10075;50.924;4.396;2024-02-26T14:10:28;16.60;;;10.80;;
19828;SDS011;10075;50.924;4.396;2024-02-26T14:12:57;14.33;;;10.57;;
19828;SDS011;10075;50.924;4.396;2024-02-26T14:15:24;14.33;;;11.00;;
19828;SDS011;10075;50.924;4.396;2024-02-26T14:17:52;11.47;;;8.07;;
19828;SDS011;10075;50.924;4.396;2024-02-26T14:20:21;13.07;;;10.37;;
19828;SDS011;10075;50.924;4.396;2024-02-26T14:22:49;14.37;;;11.07;;
19828;SDS011;10075;50.924;4.396;2024-02-26T14:25:18;10.57;;;8.67;;
19828;SDS011;10075;50.924;4.396;2024-02-26T14:27:45;12.20;;;9.50;;
19828;SDS011;10075;50.924;4.396;2024-02-26T14:30:13;13.70;;;10.43;;
19828;SDS011;10075;50.924;4.396;2024-02-26T14:32:40;13.23;;;10.33;;
19828;SDS011;10075;50.924;4.396;2024-02-26T14:35:10;16.17;;;11.97;;
19828;SDS011;10075;50.924;4.396;2024-02-26T14:37:37;14.60;;;11.03;;
19828;SDS011;10075;50.924;4.396;2024-02-26T14:40:04;15.20;;;11.47;;